sensor_id;sensor_type;location;lat;lon;timestamp;temperature;humidity
27797;DHT22;15177;50.844;4.412;2023-06-04T00:01:59;16.50;66.80
27797;DHT22;15177;50.844;4.412;2023-06-04T00:04:27;16.50;66.60
27797;DHT22;15177;50.844;4.412;2023-06-04T00:06:54;16.20;67.50
27797;DHT22;15177;50.844;4.412;2023-06-04T00:09:19;16.40;68.10
27797;DHT22;15177;50.844;4.412;2023-06-04T00:11:45;16.40;67.10
27797;DHT22;15177;50.844;4.412;2023-06-04T00:14:12;16.50;67.20
27797;DHT22;15177;50.844;4.412;2023-06-04T00:16:38;16.60;66.90
27797;DHT22;15177;50.844;4.412;2023-06-04T00:19:04;16.50;66.90
27797;DHT22;15177;50.844;4.412;2023-06-04T00:21:32;16.40;67.50
27797;DHT22;15177;50.844;4.412;2023-06-04T00:23:59;16.50;67.60
27797;DHT22;15177;50.844;4.412;2023-06-04T00:26:25;16.50;67.40
27797;DHT22;15177;50.844;4.412;2023-06-04T00:28:55;16.30;68.10
27797;DHT22;15177;50.844;4.412;2023-06-04T00:31:21;16.50;67.80
27797;DHT22;15177;50.844;4.412;2023-06-04T00:33:47;16.50;67.70
27797;DHT22;15177;50.844;4.412;2023-06-04T00:36:13;16.40;67.90
27797;DHT22;15177;50.844;4.412;2023-06-04T00:38:40;16.40;68.40
27797;DHT22;15177;50.844;4.412;2023-06-04T00:41:06;16.50;68.30
27797;DHT22;15177;50.844;4.412;2023-06-04T00:43:33;16.50;68.40
27797;DHT22;15177;50.844;4.412;2023-06-04T00:46:01;16.50;68.20
27797;DHT22;15177;50.844;4.412;2023-06-04T00:48:28;16.50;68.00
27797;DHT22;15177;50.844;4.412;2023-06-04T00:50:56;16.60;68.20
27797;DHT22;15177;50.844;4.412;2023-06-04T00:53:23;16.40;68.70
27797;DHT22;15177;50.844;4.412;2023-06-04T00:55:50;16.30;69.30
27797;DHT22;15177;50.844;4.412;2023-06-04T00:58:16;16.30;69.40
27797;DHT22;15177;50.844;4.412;2023-06-04T01:00:45;16.20;69.60
27797;DHT22;15177;50.844;4.412;2023-06-04T01:03:14;16.20;69.90
27797;DHT22;15177;50.844;4.412;2023-06-04T01:05:51;16.20;69.80
27797;DHT22;15177;50.844;4.412;2023-06-04T01:08:23;16.20;70.00
27797;DHT22;15177;50.844;4.412;2023-06-04T01:10:53;16.00;70.70
27797;DHT22;15177;50.844;4.412;2023-06-04T01:13:20;16.00;71.00
27797;DHT22;15177;50.844;4.412;2023-06-04T01:15:45;16.00;71.20
27797;DHT22;15177;50.844;4.412;2023-06-04T01:18:15;15.90;71.60
27797;DHT22;15177;50.844;4.412;2023-06-04T01:21:06;15.80;72.10
27797;DHT22;15177;50.844;4.412;2023-06-04T01:26:12;15.70;73.20
27797;DHT22;15177;50.844;4.412;2023-06-04T01:28:39;15.60;73.50
27797;DHT22;15177;50.844;4.412;2023-06-04T01:31:05;15.50;74.00
27797;DHT22;15177;50.844;4.412;2023-06-04T01:33:34;15.50;74.60
27797;DHT22;15177;50.844;4.412;2023-06-04T01:36:00;15.40;74.70
27797;DHT22;15177;50.844;4.412;2023-06-04T01:38:26;15.40;74.90
27797;DHT22;15177;50.844;4.412;2023-06-04T01:40:52;15.40;75.30
27797;DHT22;15177;50.844;4.412;2023-06-04T01:43:22;15.40;75.50
27797;DHT22;15177;50.844;4.412;2023-06-04T01:45:47;15.20;76.30
27797;DHT22;15177;50.844;4.412;2023-06-04T01:48:13;15.20;76.60
27797;DHT22;15177;50.844;4.412;2023-06-04T01:50:39;15.20;77.00
27797;DHT22;15177;50.844;4.412;2023-06-04T01:53:05;15.10;77.40
27797;DHT22;15177;50.844;4.412;2023-06-04T01:55:31;14.90;78.10
27797;DHT22;15177;50.844;4.412;2023-06-04T01:57:59;14.90;78.80
27797;DHT22;15177;50.844;4.412;2023-06-04T02:00:25;15.00;79.00
27797;DHT22;15177;50.844;4.412;2023-06-04T02:02:52;15.10;79.20
27797;DHT22;15177;50.844;4.412;2023-06-04T02:05:18;15.00;79.60
27797;DHT22;15177;50.844;4.412;2023-06-04T02:07:45;15.00;80.20
27797;DHT22;15177;50.844;4.412;2023-06-04T02:10:17;14.90;80.50
27797;DHT22;15177;50.844;4.412;2023-06-04T02:13:01;14.90;81.20
27797;DHT22;15177;50.844;4.412;2023-06-04T02:15:31;14.80;82.00
27797;DHT22;15177;50.844;4.412;2023-06-04T02:18:11;14.70;82.60
27797;DHT22;15177;50.844;4.412;2023-06-04T02:20:42;14.70;83.20
27797;DHT22;15177;50.844;4.412;2023-06-04T02:23:09;14.60;84.00
27797;DHT22;15177;50.844;4.412;2023-06-04T02:25:34;14.60;84.40
27797;DHT22;15177;50.844;4.412;2023-06-04T02:28:01;14.60;84.90
27797;DHT22;15177;50.844;4.412;2023-06-04T02:30:26;14.60;85.10
27797;DHT22;15177;50.844;4.412;2023-06-04T02:32:52;14.70;85.20
27797;DHT22;15177;50.844;4.412;2023-06-04T02:35:20;14.60;85.70
27797;DHT22;15177;50.844;4.412;2023-06-04T02:37:48;14.60;86.30
27797;DHT22;15177;50.844;4.412;2023-06-04T02:40:16;14.40;87.00
27797;DHT22;15177;50.844;4.412;2023-06-04T02:42:43;14.30;88.00
27797;DHT22;15177;50.844;4.412;2023-06-04T02:45:11;14.40;88.30
27797;DHT22;15177;50.844;4.412;2023-06-04T02:47:37;14.20;89.30
27797;DHT22;15177;50.844;4.412;2023-06-04T02:50:03;14.20;90.00
27797;DHT22;15177;50.844;4.412;2023-06-04T02:52:29;14.20;90.00
27797;DHT22;15177;50.844;4.412;2023-06-04T02:54:56;14.30;90.00
27797;DHT22;15177;50.844;4.412;2023-06-04T02:57:22;14.10;90.50
27797;DHT22;15177;50.844;4.412;2023-06-04T02:59:48;14.10;90.90
27797;DHT22;15177;50.844;4.412;2023-06-04T03:02:14;14.10;91.00
27797;DHT22;15177;50.844;4.412;2023-06-04T03:04:41;14.20;91.10
27797;DHT22;15177;50.844;4.412;2023-06-04T03:07:08;14.10;91.40
27797;DHT22;15177;50.844;4.412;2023-06-04T03:09:37;14.20;91.40
27797;DHT22;15177;50.844;4.412;2023-06-04T03:12:03;14.40;91.10
27797;DHT22;15177;50.844;4.412;2023-06-04T03:14:29;14.50;91.00
27797;DHT22;15177;50.844;4.412;2023-06-04T03:16:59;14.50;91.30
27797;DHT22;15177;50.844;4.412;2023-06-04T03:19:27;14.40;91.60
27797;DHT22;15177;50.844;4.412;2023-06-04T03:21:53;14.30;91.80
27797;DHT22;15177;50.844;4.412;2023-06-04T03:24:19;14.30;92.00
27797;DHT22;15177;50.844;4.412;2023-06-04T03:26:45;14.30;92.30
27797;DHT22;15177;50.844;4.412;2023-06-04T03:29:10;14.30;92.60
27797;DHT22;15177;50.844;4.412;2023-06-04T03:31:37;14.20;92.80
27797;DHT22;15177;50.844;4.412;2023-06-04T03:34:03;14.10;93.40
27797;DHT22;15177;50.844;4.412;2023-06-04T03:36:30;14.10;93.70
27797;DHT22;15177;50.844;4.412;2023-06-04T03:39:03;14.00;94.00
27797;DHT22;15177;50.844;4.412;2023-06-04T03:41:30;14.10;94.10
27797;DHT22;15177;50.844;4.412;2023-06-04T03:43:56;14.20;94.30
27797;DHT22;15177;50.844;4.412;2023-06-04T03:46:22;14.20;94.50
27797;DHT22;15177;50.844;4.412;2023-06-04T03:48:51;14.10;94.90
27797;DHT22;15177;50.844;4.412;2023-06-04T03:51:18;14.00;95.50
27797;DHT22;15177;50.844;4.412;2023-06-04T03:53:43;13.90;96.10
27797;DHT22;15177;50.844;4.412;2023-06-04T03:56:09;13.90;96.50
27797;DHT22;15177;50.844;4.412;2023-06-04T03:58:35;13.70;97.10
27797;DHT22;15177;50.844;4.412;2023-06-04T04:01:01;13.90;97.40
27797;DHT22;15177;50.844;4.412;2023-06-04T04:03:30;14.00;97.40
27797;DHT22;15177;50.844;4.412;2023-06-04T04:05:57;14.00;97.50
27797;DHT22;15177;50.844;4.412;2023-06-04T04:08:23;14.10;97.70
27797;DHT22;15177;50.844;4.412;2023-06-04T04:10:49;14.10;98.00
27797;DHT22;15177;50.844;4.412;2023-06-04T04:13:17;14.00;98.30
27797;DHT22;15177;50.844;4.412;2023-06-04T04:15:42;14.00;98.60
27797;DHT22;15177;50.844;4.412;2023-06-04T04:18:08;13.90;99.30
27797;DHT22;15177;50.844;4.412;2023-06-04T04:20:36;14.00;99.80
27797;DHT22;15177;50.844;4.412;2023-06-04T04:23:04;14.10;99.80
27797;DHT22;15177;50.844;4.412;2023-06-04T04:25:31;14.10;99.90
27797;DHT22;15177;50.844;4.412;2023-06-04T04:27:58;14.00;99.90
27797;DHT22;15177;50.844;4.412;2023-06-04T04:30:25;14.00;99.90
27797;DHT22;15177;50.844;4.412;2023-06-04T04:32:51;13.90;99.90
27797;DHT22;15177;50.844;4.412;2023-06-04T04:35:17;13.90;99.90
27797;DHT22;15177;50.844;4.412;2023-06-04T04:37:44;13.90;99.90
27797;DHT22;15177;50.844;4.412;2023-06-04T04:40:10;13.90;99.90
27797;DHT22;15177;50.844;4.412;2023-06-04T04:42:37;13.90;99.90
27797;DHT22;15177;50.844;4.412;2023-06-04T04:45:03;14.00;99.90
27797;DHT22;15177;50.844;4.412;2023-06-04T04:47:29;14.00;99.90
27797;DHT22;15177;50.844;4.412;2023-06-04T04:49:56;14.00;99.90
27797;DHT22;15177;50.844;4.412;2023-06-04T04:52:22;13.90;99.90
27797;DHT22;15177;50.844;4.412;2023-06-04T04:54:49;14.00;99.90
27797;DHT22;15177;50.844;4.412;2023-06-04T04:57:15;13.90;99.90
27797;DHT22;15177;50.844;4.412;2023-06-04T04:59:40;14.00;99.90
27797;DHT22;15177;50.844;4.412;2023-06-04T05:02:06;13.90;99.90
27797;DHT22;15177;50.844;4.412;2023-06-04T05:04:32;14.00;99.90
27797;DHT22;15177;50.844;4.412;2023-06-04T05:06:57;14.20;99.90
27797;DHT22;15177;50.844;4.412;2023-06-04T05:09:23;14.40;99.90
27797;DHT22;15177;50.844;4.412;2023-06-04T05:11:49;14.50;99.90
27797;DHT22;15177;50.844;4.412;2023-06-04T05:14:15;14.50;99.90
27797;DHT22;15177;50.844;4.412;2023-06-04T05:16:41;14.40;99.90
27797;DHT22;15177;50.844;4.412;2023-06-04T05:19:06;14.50;99.90
27797;DHT22;15177;50.844;4.412;2023-06-04T05:21:33;14.60;99.90
27797;DHT22;15177;50.844;4.412;2023-06-04T05:23:59;14.70;99.90
27797;DHT22;15177;50.844;4.412;2023-06-04T05:26:25;14.60;99.90
27797;DHT22;15177;50.844;4.412;2023-06-04T05:28:53;14.80;99.90
27797;DHT22;15177;50.844;4.412;2023-06-04T05:31:19;15.10;99.90
27797;DHT22;15177;50.844;4.412;2023-06-04T05:33:44;15.30;99.90
27797;DHT22;15177;50.844;4.412;2023-06-04T05:36:11;15.40;99.90
27797;DHT22;15177;50.844;4.412;2023-06-04T05:38:37;15.90;99.90
27797;DHT22;15177;50.844;4.412;2023-06-04T05:41:03;16.20;99.90
27797;DHT22;15177;50.844;4.412;2023-06-04T05:43:28;16.80;99.90
27797;DHT22;15177;50.844;4.412;2023-06-04T05:45:55;17.10;98.60
27797;DHT22;15177;50.844;4.412;2023-06-04T05:48:21;17.50;97.80
27797;DHT22;15177;50.844;4.412;2023-06-04T05:50:47;17.40;97.20
27797;DHT22;15177;50.844;4.412;2023-06-04T05:53:13;18.10;95.50
27797;DHT22;15177;50.844;4.412;2023-06-04T05:55:39;18.70;94.40
27797;DHT22;15177;50.844;4.412;2023-06-04T05:58:04;19.40;92.10
27797;DHT22;15177;50.844;4.412;2023-06-04T06:00:30;19.80;90.60
27797;DHT22;15177;50.844;4.412;2023-06-04T06:02:55;19.90;87.80
27797;DHT22;15177;50.844;4.412;2023-06-04T06:05:21;20.60;86.40
27797;DHT22;15177;50.844;4.412;2023-06-04T06:07:47;21.60;81.50
27797;DHT22;15177;50.844;4.412;2023-06-04T06:10:13;22.90;75.40
27797;DHT22;15177;50.844;4.412;2023-06-04T06:12:39;23.30;71.80
27797;DHT22;15177;50.844;4.412;2023-06-04T06:15:05;23.60;69.00
27797;DHT22;15177;50.844;4.412;2023-06-04T06:17:31;23.10;69.30
27797;DHT22;15177;50.844;4.412;2023-06-04T06:19:58;23.30;69.90
27797;DHT22;15177;50.844;4.412;2023-06-04T06:22:25;24.00;67.40
27797;DHT22;15177;50.844;4.412;2023-06-04T06:24:52;24.90;65.30
27797;DHT22;15177;50.844;4.412;2023-06-04T06:27:17;24.30;63.60
27797;DHT22;15177;50.844;4.412;2023-06-04T06:29:44;24.70;63.20
27797;DHT22;15177;50.844;4.412;2023-06-04T06:32:10;24.70;63.80
27797;DHT22;15177;50.844;4.412;2023-06-04T06:34:36;25.10;62.00
27797;DHT22;15177;50.844;4.412;2023-06-04T06:37:03;25.80;61.30
27797;DHT22;15177;50.844;4.412;2023-06-04T06:39:29;26.40;58.30
27797;DHT22;15177;50.844;4.412;2023-06-04T06:41:54;25.60;58.30
27797;DHT22;15177;50.844;4.412;2023-06-04T06:44:20;26.20;58.40
27797;DHT22;15177;50.844;4.412;2023-06-04T06:46:46;26.00;57.30
27797;DHT22;15177;50.844;4.412;2023-06-04T06:49:14;25.80;58.10
27797;DHT22;15177;50.844;4.412;2023-06-04T06:51:40;26.20;57.90
27797;DHT22;15177;50.844;4.412;2023-06-04T06:54:08;26.20;57.70
27797;DHT22;15177;50.844;4.412;2023-06-04T06:56:34;26.80;57.00
27797;DHT22;15177;50.844;4.412;2023-06-04T06:59:00;27.10;55.50
27797;DHT22;15177;50.844;4.412;2023-06-04T07:01:26;27.20;55.90
27797;DHT22;15177;50.844;4.412;2023-06-04T07:03:52;27.70;54.90
27797;DHT22;15177;50.844;4.412;2023-06-04T07:06:17;26.90;56.10
27797;DHT22;15177;50.844;4.412;2023-06-04T07:08:43;27.10;55.90
27797;DHT22;15177;50.844;4.412;2023-06-04T07:11:09;27.90;54.40
27797;DHT22;15177;50.844;4.412;2023-06-04T07:13:38;28.40;53.60
27797;DHT22;15177;50.844;4.412;2023-06-04T07:16:05;28.80;52.70
27797;DHT22;15177;50.844;4.412;2023-06-04T07:18:30;28.90;52.10
27797;DHT22;15177;50.844;4.412;2023-06-04T07:20:56;29.20;51.80
27797;DHT22;15177;50.844;4.412;2023-06-04T07:23:22;29.60;51.30
27797;DHT22;15177;50.844;4.412;2023-06-04T07:25:47;29.70;50.10
27797;DHT22;15177;50.844;4.412;2023-06-04T07:28:13;29.70;50.10
27797;DHT22;15177;50.844;4.412;2023-06-04T07:30:39;29.60;49.90
27797;DHT22;15177;50.844;4.412;2023-06-04T07:33:05;29.70;49.80
27797;DHT22;15177;50.844;4.412;2023-06-04T07:35:32;29.90;49.30
27797;DHT22;15177;50.844;4.412;2023-06-04T07:37:58;30.40;48.60
27797;DHT22;15177;50.844;4.412;2023-06-04T07:40:24;29.20;49.40
27797;DHT22;15177;50.844;4.412;2023-06-04T07:42:50;29.50;49.30
27797;DHT22;15177;50.844;4.412;2023-06-04T07:45:15;30.00;49.00
27797;DHT22;15177;50.844;4.412;2023-06-04T07:47:42;29.80;49.30
27797;DHT22;15177;50.844;4.412;2023-06-04T07:50:08;30.50;48.00
27797;DHT22;15177;50.844;4.412;2023-06-04T07:52:34;31.10;47.20
27797;DHT22;15177;50.844;4.412;2023-06-04T07:55:00;30.80;46.50
27797;DHT22;15177;50.844;4.412;2023-06-04T07:57:26;31.10;46.70
27797;DHT22;15177;50.844;4.412;2023-06-04T07:59:52;31.40;46.00
27797;DHT22;15177;50.844;4.412;2023-06-04T08:02:18;31.90;45.50
27797;DHT22;15177;50.844;4.412;2023-06-04T08:04:44;32.20;44.60
27797;DHT22;15177;50.844;4.412;2023-06-04T08:07:11;32.20;44.50
27797;DHT22;15177;50.844;4.412;2023-06-04T08:09:36;33.10;44.10
27797;DHT22;15177;50.844;4.412;2023-06-04T08:12:02;33.60;43.10
27797;DHT22;15177;50.844;4.412;2023-06-04T08:14:28;33.60;42.70
27797;DHT22;15177;50.844;4.412;2023-06-04T08:16:54;34.10;42.50
27797;DHT22;15177;50.844;4.412;2023-06-04T08:19:20;33.70;42.80
27797;DHT22;15177;50.844;4.412;2023-06-04T08:21:45;33.90;42.30
27797;DHT22;15177;50.844;4.412;2023-06-04T08:24:12;34.50;41.70
27797;DHT22;15177;50.844;4.412;2023-06-04T08:26:38;35.10;41.30
27797;DHT22;15177;50.844;4.412;2023-06-04T08:29:06;35.20;40.80
27797;DHT22;15177;50.844;4.412;2023-06-04T08:31:33;34.50;40.80
27797;DHT22;15177;50.844;4.412;2023-06-04T08:33:59;34.20;40.80
27797;DHT22;15177;50.844;4.412;2023-06-04T08:36:27;34.30;41.00
27797;DHT22;15177;50.844;4.412;2023-06-04T08:38:52;33.70;41.20
27797;DHT22;15177;50.844;4.412;2023-06-04T08:41:28;33.70;41.60
27797;DHT22;15177;50.844;4.412;2023-06-04T08:43:57;34.10;40.40
27797;DHT22;15177;50.844;4.412;2023-06-04T08:46:23;33.90;40.60
27797;DHT22;15177;50.844;4.412;2023-06-04T08:48:50;34.30;40.40
27797;DHT22;15177;50.844;4.412;2023-06-04T08:51:16;34.40;40.50
27797;DHT22;15177;50.844;4.412;2023-06-04T08:53:42;34.20;40.60
27797;DHT22;15177;50.844;4.412;2023-06-04T08:56:08;34.90;39.60
27797;DHT22;15177;50.844;4.412;2023-06-04T08:58:36;35.00;39.60
27797;DHT22;15177;50.844;4.412;2023-06-04T09:01:05;34.00;39.60
27797;DHT22;15177;50.844;4.412;2023-06-04T09:03:32;33.30;40.70
27797;DHT22;15177;50.844;4.412;2023-06-04T09:06:02;33.90;39.80
27797;DHT22;15177;50.844;4.412;2023-06-04T09:08:31;33.90;39.50
27797;DHT22;15177;50.844;4.412;2023-06-04T09:10:59;33.20;40.10
27797;DHT22;15177;50.844;4.412;2023-06-04T09:13:29;33.50;39.90
27797;DHT22;15177;50.844;4.412;2023-06-04T09:16:03;33.60;39.80
27797;DHT22;15177;50.844;4.412;2023-06-04T09:18:30;33.80;39.30
27797;DHT22;15177;50.844;4.412;2023-06-04T09:21:05;33.90;39.50
27797;DHT22;15177;50.844;4.412;2023-06-04T09:23:47;33.30;39.40
27797;DHT22;15177;50.844;4.412;2023-06-04T09:26:15;33.10;39.80
27797;DHT22;15177;50.844;4.412;2023-06-04T09:28:41;32.40;40.30
27797;DHT22;15177;50.844;4.412;2023-06-04T09:31:26;31.80;40.90
27797;DHT22;15177;50.844;4.412;2023-06-04T09:33:54;32.80;40.30
27797;DHT22;15177;50.844;4.412;2023-06-04T09:36:20;33.50;39.80
27797;DHT22;15177;50.844;4.412;2023-06-04T09:38:45;32.40;40.20
27797;DHT22;15177;50.844;4.412;2023-06-04T09:41:17;31.50;41.00
27797;DHT22;15177;50.844;4.412;2023-06-04T09:43:47;32.30;40.20
27797;DHT22;15177;50.844;4.412;2023-06-04T09:46:14;33.30;39.50
27797;DHT22;15177;50.844;4.412;2023-06-04T09:48:41;33.00;39.40
27797;DHT22;15177;50.844;4.412;2023-06-04T09:51:16;31.60;41.20
27797;DHT22;15177;50.844;4.412;2023-06-04T09:53:53;32.30;40.50
27797;DHT22;15177;50.844;4.412;2023-06-04T09:56:19;33.00;39.50
27797;DHT22;15177;50.844;4.412;2023-06-04T09:58:45;33.10;38.80
27797;DHT22;15177;50.844;4.412;2023-06-04T10:01:13;32.20;40.40
27797;DHT22;15177;50.844;4.412;2023-06-04T10:03:42;32.80;40.10
27797;DHT22;15177;50.844;4.412;2023-06-04T10:06:14;33.50;38.80
27797;DHT22;15177;50.844;4.412;2023-06-04T10:08:42;33.90;38.70
27797;DHT22;15177;50.844;4.412;2023-06-04T10:11:09;33.80;38.70
27797;DHT22;15177;50.844;4.412;2023-06-04T10:13:52;33.70;38.90
27797;DHT22;15177;50.844;4.412;2023-06-04T10:16:19;33.40;39.20
27797;DHT22;15177;50.844;4.412;2023-06-04T10:18:46;33.60;38.60
27797;DHT22;15177;50.844;4.412;2023-06-04T10:21:13;34.40;38.00
27797;DHT22;15177;50.844;4.412;2023-06-04T10:23:40;34.70;37.40
27797;DHT22;15177;50.844;4.412;2023-06-04T10:26:16;33.60;38.20
27797;DHT22;15177;50.844;4.412;2023-06-04T10:28:42;33.80;37.80
27797;DHT22;15177;50.844;4.412;2023-06-04T10:31:12;33.90;37.90
27797;DHT22;15177;50.844;4.412;2023-06-04T10:33:39;34.60;37.40
27797;DHT22;15177;50.844;4.412;2023-06-04T10:36:19;34.70;37.00
27797;DHT22;15177;50.844;4.412;2023-06-04T10:38:49;34.60;36.60
27797;DHT22;15177;50.844;4.412;2023-06-04T10:41:16;34.40;37.40
27797;DHT22;15177;50.844;4.412;2023-06-04T10:43:46;34.50;37.00
27797;DHT22;15177;50.844;4.412;2023-06-04T10:46:16;34.50;37.10
27797;DHT22;15177;50.844;4.412;2023-06-04T10:48:48;33.90;36.80
27797;DHT22;15177;50.844;4.412;2023-06-04T10:51:15;32.40;38.10
27797;DHT22;15177;50.844;4.412;2023-06-04T10:53:41;32.10;38.20
27797;DHT22;15177;50.844;4.412;2023-06-04T10:56:08;30.60;40.10
27797;DHT22;15177;50.844;4.412;2023-06-04T10:58:34;30.70;39.70
27797;DHT22;15177;50.844;4.412;2023-06-04T11:01:00;31.00;40.30
27797;DHT22;15177;50.844;4.412;2023-06-04T11:03:37;32.50;39.60
27797;DHT22;15177;50.844;4.412;2023-06-04T11:06:13;32.30;38.30
27797;DHT22;15177;50.844;4.412;2023-06-04T11:08:40;30.70;39.10
27797;DHT22;15177;50.844;4.412;2023-06-04T11:11:14;30.60;39.60
27797;DHT22;15177;50.844;4.412;2023-06-04T11:14:07;31.30;39.60
27797;DHT22;15177;50.844;4.412;2023-06-04T11:16:33;32.50;39.20
27797;DHT22;15177;50.844;4.412;2023-06-04T11:18:59;32.60;39.20
27797;DHT22;15177;50.844;4.412;2023-06-04T11:21:25;32.90;39.00
27797;DHT22;15177;50.844;4.412;2023-06-04T11:24:01;33.00;38.40
27797;DHT22;15177;50.844;4.412;2023-06-04T11:26:34;32.60;38.70
27797;DHT22;15177;50.844;4.412;2023-06-04T11:29:01;31.70;39.40
27797;DHT22;15177;50.844;4.412;2023-06-04T11:31:27;30.80;38.60
27797;DHT22;15177;50.844;4.412;2023-06-04T11:33:54;30.40;38.50
27797;DHT22;15177;50.844;4.412;2023-06-04T11:36:28;29.70;38.70
27797;DHT22;15177;50.844;4.412;2023-06-04T11:41:21;28.10;41.40
27797;DHT22;15177;50.844;4.412;2023-06-04T11:43:50;28.00;41.70
27797;DHT22;15177;50.844;4.412;2023-06-04T11:46:16;27.10;43.00
27797;DHT22;15177;50.844;4.412;2023-06-04T11:48:42;26.80;43.90
27797;DHT22;15177;50.844;4.412;2023-06-04T11:51:08;26.60;44.00
27797;DHT22;15177;50.844;4.412;2023-06-04T11:53:37;26.30;44.90
27797;DHT22;15177;50.844;4.412;2023-06-04T11:56:04;26.20;44.60
27797;DHT22;15177;50.844;4.412;2023-06-04T11:58:30;26.00;45.10
27797;DHT22;15177;50.844;4.412;2023-06-04T12:00:57;25.80;44.60
27797;DHT22;15177;50.844;4.412;2023-06-04T12:03:38;25.50;45.00
27797;DHT22;15177;50.844;4.412;2023-06-04T12:06:16;25.00;46.00
27797;DHT22;15177;50.844;4.412;2023-06-04T12:08:50;24.70;47.80
27797;DHT22;15177;50.844;4.412;2023-06-04T12:13:50;24.70;47.40
27797;DHT22;15177;50.844;4.412;2023-06-04T12:16:16;24.50;47.50
27797;DHT22;15177;50.844;4.412;2023-06-04T12:18:42;24.50;47.40
27797;DHT22;15177;50.844;4.412;2023-06-04T12:21:25;24.50;47.00
27797;DHT22;15177;50.844;4.412;2023-06-04T12:24:12;24.70;47.00
27797;DHT22;15177;50.844;4.412;2023-06-04T12:26:41;25.00;46.80
27797;DHT22;15177;50.844;4.412;2023-06-04T12:29:15;25.20;46.90
27797;DHT22;15177;50.844;4.412;2023-06-04T12:31:42;25.20;46.80
27797;DHT22;15177;50.844;4.412;2023-06-04T12:34:09;25.20;46.40
27797;DHT22;15177;50.844;4.412;2023-06-04T12:36:36;25.20;46.50
27797;DHT22;15177;50.844;4.412;2023-06-04T12:39:04;25.20;46.40
27797;DHT22;15177;50.844;4.412;2023-06-04T12:41:33;25.10;47.20
27797;DHT22;15177;50.844;4.412;2023-06-04T12:43:59;24.80;47.70
27797;DHT22;15177;50.844;4.412;2023-06-04T12:46:26;24.90;48.00
27797;DHT22;15177;50.844;4.412;2023-06-04T12:48:52;24.90;47.90
27797;DHT22;15177;50.844;4.412;2023-06-04T12:51:18;24.90;47.90
27797;DHT22;15177;50.844;4.412;2023-06-04T12:53:44;24.50;47.80
27797;DHT22;15177;50.844;4.412;2023-06-04T12:56:10;24.30;48.00
27797;DHT22;15177;50.844;4.412;2023-06-04T12:58:37;24.50;48.00
27797;DHT22;15177;50.844;4.412;2023-06-04T13:01:02;24.50;47.70
27797;DHT22;15177;50.844;4.412;2023-06-04T13:03:30;24.80;47.70
27797;DHT22;15177;50.844;4.412;2023-06-04T13:05:56;24.90;47.70
27797;DHT22;15177;50.844;4.412;2023-06-04T13:08:24;25.10;46.60
27797;DHT22;15177;50.844;4.412;2023-06-04T13:10:51;25.00;47.00
27797;DHT22;15177;50.844;4.412;2023-06-04T13:13:17;25.10;46.50
27797;DHT22;15177;50.844;4.412;2023-06-04T13:15:44;25.10;46.00
27797;DHT22;15177;50.844;4.412;2023-06-04T13:18:10;24.90;46.40
27797;DHT22;15177;50.844;4.412;2023-06-04T13:20:37;24.90;46.70
27797;DHT22;15177;50.844;4.412;2023-06-04T13:23:03;24.80;46.50
27797;DHT22;15177;50.844;4.412;2023-06-04T13:25:29;24.50;46.80
27797;DHT22;15177;50.844;4.412;2023-06-04T13:27:57;24.60;46.60
27797;DHT22;15177;50.844;4.412;2023-06-04T13:30:22;24.60;47.00
27797;DHT22;15177;50.844;4.412;2023-06-04T13:32:48;24.90;46.90
27797;DHT22;15177;50.844;4.412;2023-06-04T13:35:15;24.90;46.40
27797;DHT22;15177;50.844;4.412;2023-06-04T13:37:41;25.00;46.30
27797;DHT22;15177;50.844;4.412;2023-06-04T13:40:07;25.00;46.70
27797;DHT22;15177;50.844;4.412;2023-06-04T13:42:33;24.90;46.50
27797;DHT22;15177;50.844;4.412;2023-06-04T13:44:59;24.90;46.90
27797;DHT22;15177;50.844;4.412;2023-06-04T13:47:25;24.90;46.60
27797;DHT22;15177;50.844;4.412;2023-06-04T13:49:51;25.00;46.30
27797;DHT22;15177;50.844;4.412;2023-06-04T13:52:18;24.90;46.60
27797;DHT22;15177;50.844;4.412;2023-06-04T13:54:44;24.90;46.80
27797;DHT22;15177;50.844;4.412;2023-06-04T13:57:09;24.90;46.90
27797;DHT22;15177;50.844;4.412;2023-06-04T13:59:37;24.90;46.30
27797;DHT22;15177;50.844;4.412;2023-06-04T14:02:02;24.80;46.50
27797;DHT22;15177;50.844;4.412;2023-06-04T14:04:28;24.80;47.20
27797;DHT22;15177;50.844;4.412;2023-06-04T14:06:54;24.80;46.80
27797;DHT22;15177;50.844;4.412;2023-06-04T14:09:19;25.00;46.30
27797;DHT22;15177;50.844;4.412;2023-06-04T14:11:45;25.00;45.70
27797;DHT22;15177;50.844;4.412;2023-06-04T14:14:16;24.90;45.90
27797;DHT22;15177;50.844;4.412;2023-06-04T14:16:43;24.90;46.30
27797;DHT22;15177;50.844;4.412;2023-06-04T14:19:08;25.00;46.20
27797;DHT22;15177;50.844;4.412;2023-06-04T14:21:34;25.10;45.70
27797;DHT22;15177;50.844;4.412;2023-06-04T14:24:01;25.10;45.50
27797;DHT22;15177;50.844;4.412;2023-06-04T14:26:27;24.80;46.20
27797;DHT22;15177;50.844;4.412;2023-06-04T14:28:54;24.80;45.90
27797;DHT22;15177;50.844;4.412;2023-06-04T14:31:19;24.60;45.90
27797;DHT22;15177;50.844;4.412;2023-06-04T14:33:45;24.70;46.10
27797;DHT22;15177;50.844;4.412;2023-06-04T14:36:11;24.70;45.70
27797;DHT22;15177;50.844;4.412;2023-06-04T14:38:37;24.40;45.70
27797;DHT22;15177;50.844;4.412;2023-06-04T14:41:02;24.30;46.00
27797;DHT22;15177;50.844;4.412;2023-06-04T14:43:28;24.30;46.30
27797;DHT22;15177;50.844;4.412;2023-06-04T14:45:54;24.30;46.00
27797;DHT22;15177;50.844;4.412;2023-06-04T14:48:19;24.30;46.00
27797;DHT22;15177;50.844;4.412;2023-06-04T14:50:45;24.50;46.30
27797;DHT22;15177;50.844;4.412;2023-06-04T14:53:12;24.50;45.90
27797;DHT22;15177;50.844;4.412;2023-06-04T14:55:39;24.60;45.80
27797;DHT22;15177;50.844;4.412;2023-06-04T14:58:06;24.70;45.90
27797;DHT22;15177;50.844;4.412;2023-06-04T15:00:32;24.50;45.80
27797;DHT22;15177;50.844;4.412;2023-06-04T15:02:58;24.50;46.10
27797;DHT22;15177;50.844;4.412;2023-06-04T15:05:25;24.50;45.80
27797;DHT22;15177;50.844;4.412;2023-06-04T15:07:50;24.30;45.70
27797;DHT22;15177;50.844;4.412;2023-06-04T15:10:16;24.40;45.80
27797;DHT22;15177;50.844;4.412;2023-06-04T15:12:42;24.70;45.90
27797;DHT22;15177;50.844;4.412;2023-06-04T15:15:09;24.70;45.40
27797;DHT22;15177;50.844;4.412;2023-06-04T15:17:36;24.50;45.20
27797;DHT22;15177;50.844;4.412;2023-06-04T15:20:05;24.50;45.20
27797;DHT22;15177;50.844;4.412;2023-06-04T15:22:31;24.40;44.70
27797;DHT22;15177;50.844;4.412;2023-06-04T15:24:56;24.20;44.70
27797;DHT22;15177;50.844;4.412;2023-06-04T15:27:22;24.40;44.80
27797;DHT22;15177;50.844;4.412;2023-06-04T15:29:48;24.60;44.30
27797;DHT22;15177;50.844;4.412;2023-06-04T15:32:13;24.70;44.10
27797;DHT22;15177;50.844;4.412;2023-06-04T15:34:40;24.60;44.40
27797;DHT22;15177;50.844;4.412;2023-06-04T15:37:07;24.40;45.00
27797;DHT22;15177;50.844;4.412;2023-06-04T15:39:32;24.40;45.10